sensor_id;sensor_type;location;lat;lon;timestamp;P1;durP1;ratioP1;P2;durP2;ratioP2
22883;SDS011;13386;24.786;110.488;2022-08-21T00:00:43;3.28;;;0.80;;
22883;SDS011;13386;24.786;110.488;2022-08-21T00:03:28;3.60;;;0.70;;
22883;SDS011;13386;24.786;110.488;2022-08-21T00:15:41;4.78;;;0.70;;
22883;SDS011;13386;24.786;110.488;2022-08-21T00:21:21;2.47;;;0.52;;
22883;SDS011;13386;24.786;110.488;2022-08-21T00:27:31;5.93;;;0.63;;
22883;SDS011;13386;24.786;110.488;2022-08-21T00:30:06;3.00;;;0.65;;
22883;SDS011;13386;24.786;110.488;2022-08-21T00:32:37;2.38;;;0.50;;
22883;SDS011;13386;24.786;110.488;2022-08-21T00:35:09;2.78;;;0.40;;
22883;SDS011;13386;24.786;110.488;2022-08-21T00:37:40;2.60;;;0.47;;
22883;SDS011;13386;24.786;110.488;2022-08-21T00:40:12;4.88;;;0.50;;
22883;SDS011;13386;24.786;110.488;2022-08-21T00:42:45;2.88;;;0.63;;
22883;SDS011;13386;24.786;110.488;2022-08-21T00:45:17;4.82;;;0.50;;
22883;SDS011;13386;24.786;110.488;2022-08-21T00:47:47;1.40;;;0.40;;
22883;SDS011;13386;24.786;110.488;2022-08-21T00:50:19;2.35;;;0.68;;
22883;SDS011;13386;24.786;110.488;2022-08-21T00:52:50;2.97;;;0.45;;
22883;SDS011;13386;24.786;110.488;2022-08-21T00:55:21;1.25;;;0.30;;
22883;SDS011;13386;24.786;110.488;2022-08-21T00:57:55;5.35;;;0.57;;
22883;SDS011;13386;24.786;110.488;2022-08-21T01:00:27;3.30;;;0.80;;
22883;SDS011;13386;24.786;110.488;2022-08-21T01:02:59;3.63;;;0.65;;
22883;SDS011;13386;24.786;110.488;2022-08-21T01:05:31;1.60;;;0.50;;
22883;SDS011;13386;24.786;110.488;2022-08-21T01:08:01;3.33;;;0.70;;
22883;SDS011;13386;24.786;110.488;2022-08-21T01:10:32;2.83;;;0.40;;
22883;SDS011;13386;24.786;110.488;2022-08-21T01:13:06;2.92;;;0.47;;
22883;SDS011;13386;24.786;110.488;2022-08-21T01:15:40;3.53;;;0.52;;
22883;SDS011;13386;24.786;110.488;2022-08-21T01:18:12;1.17;;;0.40;;
22883;SDS011;13386;24.786;110.488;2022-08-21T01:20:45;1.52;;;0.47;;
22883;SDS011;13386;24.786;110.488;2022-08-21T01:23:18;2.90;;;0.50;;
22883;SDS011;13386;24.786;110.488;2022-08-21T01:25:49;1.58;;;0.43;;
22883;SDS011;13386;24.786;110.488;2022-08-21T01:28:19;3.75;;;0.50;;
22883;SDS011;13386;24.786;110.488;2022-08-21T01:30:51;3.45;;;0.50;;
22883;SDS011;13386;24.786;110.488;2022-08-21T01:33:24;2.47;;;0.50;;
22883;SDS011;13386;24.786;110.488;2022-08-21T01:35:55;4.20;;;0.47;;
22883;SDS011;13386;24.786;110.488;2022-08-21T01:38:27;2.55;;;0.70;;
22883;SDS011;13386;24.786;110.488;2022-08-21T01:40:58;2.17;;;0.52;;
22883;SDS011;13386;24.786;110.488;2022-08-21T01:43:29;2.03;;;0.57;;
22883;SDS011;13386;24.786;110.488;2022-08-21T01:46:00;4.97;;;0.70;;
22883;SDS011;13386;24.786;110.488;2022-08-21T01:48:33;18.92;;;0.82;;
22883;SDS011;13386;24.786;110.488;2022-08-21T01:51:04;2.58;;;0.70;;
22883;SDS011;13386;24.786;110.488;2022-08-21T01:53:37;5.07;;;0.50;;
22883;SDS011;13386;24.786;110.488;2022-08-21T01:56:08;3.30;;;0.50;;
22883;SDS011;13386;24.786;110.488;2022-08-21T01:58:40;0.70;;;0.30;;
22883;SDS011;13386;24.786;110.488;2022-08-21T02:01:10;4.30;;;0.70;;
22883;SDS011;13386;24.786;110.488;2022-08-21T02:03:41;1.25;;;0.40;;
22883;SDS011;13386;24.786;110.488;2022-08-21T02:06:13;3.58;;;0.68;;
22883;SDS011;13386;24.786;110.488;2022-08-21T02:08:49;3.15;;;0.50;;
22883;SDS011;13386;24.786;110.488;2022-08-21T02:11:20;3.38;;;0.55;;
22883;SDS011;13386;24.786;110.488;2022-08-21T02:13:51;3.20;;;0.60;;
22883;SDS011;13386;24.786;110.488;2022-08-21T02:16:22;7.45;;;0.65;;
22883;SDS011;13386;24.786;110.488;2022-08-21T02:18:53;5.72;;;0.88;;
22883;SDS011;13386;24.786;110.488;2022-08-21T02:21:25;1.88;;;0.60;;
22883;SDS011;13386;24.786;110.488;2022-08-21T02:23:57;3.40;;;0.60;;
22883;SDS011;13386;24.786;110.488;2022-08-21T02:26:28;4.65;;;0.60;;
22883;SDS011;13386;24.786;110.488;2022-08-21T02:28:59;4.50;;;0.82;;
22883;SDS011;13386;24.786;110.488;2022-08-21T02:31:30;3.97;;;0.80;;
22883;SDS011;13386;24.786;110.488;2022-08-21T02:34:02;2.92;;;0.60;;
22883;SDS011;13386;24.786;110.488;2022-08-21T02:36:33;3.17;;;0.70;;
22883;SDS011;13386;24.786;110.488;2022-08-21T02:39:09;3.00;;;0.82;;
22883;SDS011;13386;24.786;110.488;2022-08-21T02:41:43;2.90;;;0.65;;
22883;SDS011;13386;24.786;110.488;2022-08-21T02:44:14;1.48;;;0.60;;
22883;SDS011;13386;24.786;110.488;2022-08-21T02:46:45;3.92;;;0.70;;
22883;SDS011;13386;24.786;110.488;2022-08-21T02:49:16;5.40;;;0.68;;
22883;SDS011;13386;24.786;110.488;2022-08-21T02:52:03;1.58;;;0.50;;
22883;SDS011;13386;24.786;110.488;2022-08-21T02:54:37;3.53;;;0.95;;
22883;SDS011;13386;24.786;110.488;2022-08-21T02:57:08;3.78;;;1.00;;
22883;SDS011;13386;24.786;110.488;2022-08-21T02:59:39;4.05;;;0.82;;
22883;SDS011;13386;24.786;110.488;2022-08-21T03:02:09;3.05;;;0.70;;
22883;SDS011;13386;24.786;110.488;2022-08-21T03:04:40;4.28;;;1.55;;
22883;SDS011;13386;24.786;110.488;2022-08-21T03:07:14;2.38;;;0.85;;
22883;SDS011;13386;24.786;110.488;2022-08-21T03:09:47;3.40;;;0.80;;
22883;SDS011;13386;24.786;110.488;2022-08-21T03:12:18;4.25;;;0.77;;
22883;SDS011;13386;24.786;110.488;2022-08-21T03:14:49;1.92;;;0.65;;
22883;SDS011;13386;24.786;110.488;2022-08-21T03:17:19;3.83;;;0.68;;
22883;SDS011;13386;24.786;110.488;2022-08-21T03:19:50;3.42;;;0.70;;
22883;SDS011;13386;24.786;110.488;2022-08-21T03:22:24;2.53;;;1.05;;
22883;SDS011;13386;24.786;110.488;2022-08-21T03:24:57;3.20;;;0.77;;
22883;SDS011;13386;24.786;110.488;2022-08-21T03:27:29;3.53;;;0.80;;
22883;SDS011;13386;24.786;110.488;2022-08-21T03:30:03;1.52;;;0.80;;
22883;SDS011;13386;24.786;110.488;2022-08-21T03:32:34;7.03;;;1.00;;
22883;SDS011;13386;24.786;110.488;2022-08-21T03:35:05;3.92;;;0.85;;
22883;SDS011;13386;24.786;110.488;2022-08-21T03:37:36;2.53;;;0.70;;
22883;SDS011;13386;24.786;110.488;2022-08-21T03:40:10;3.22;;;0.80;;
22883;SDS011;13386;24.786;110.488;2022-08-21T03:42:42;6.55;;;1.00;;
22883;SDS011;13386;24.786;110.488;2022-08-21T03:45:14;2.75;;;0.60;;
22883;SDS011;13386;24.786;110.488;2022-08-21T03:47:57;3.85;;;0.85;;
22883;SDS011;13386;24.786;110.488;2022-08-21T03:50:29;13.38;;;1.45;;
22883;SDS011;13386;24.786;110.488;2022-08-21T03:53:03;2.40;;;0.82;;
22883;SDS011;13386;24.786;110.488;2022-08-21T03:55:36;6.60;;;1.30;;
22883;SDS011;13386;24.786;110.488;2022-08-21T03:58:07;5.35;;;1.02;;
22883;SDS011;13386;24.786;110.488;2022-08-21T04:00:38;4.80;;;0.93;;
22883;SDS011;13386;24.786;110.488;2022-08-21T04:03:09;7.97;;;1.27;;
22883;SDS011;13386;24.786;110.488;2022-08-21T04:05:39;6.00;;;1.10;;
22883;SDS011;13386;24.786;110.488;2022-08-21T04:08:12;12.23;;;2.72;;
22883;SDS011;13386;24.786;110.488;2022-08-21T04:10:46;12.73;;;1.67;;
22883;SDS011;13386;24.786;110.488;2022-08-21T04:13:17;8.50;;;1.38;;
22883;SDS011;13386;24.786;110.488;2022-08-21T04:15:51;2.80;;;0.93;;
22883;SDS011;13386;24.786;110.488;2022-08-21T04:18:22;3.45;;;0.65;;
22883;SDS011;13386;24.786;110.488;2022-08-21T04:20:54;2.85;;;0.80;;
22883;SDS011;13386;24.786;110.488;2022-08-21T04:23:28;2.72;;;0.73;;
22883;SDS011;13386;24.786;110.488;2022-08-21T04:26:01;5.68;;;1.42;;
22883;SDS011;13386;24.786;110.488;2022-08-21T04:28:33;7.47;;;1.63;;
22883;SDS011;13386;24.786;110.488;2022-08-21T04:31:04;9.35;;;2.40;;
22883;SDS011;13386;24.786;110.488;2022-08-21T04:33:34;9.93;;;1.95;;
22883;SDS011;13386;24.786;110.488;2022-08-21T04:36:05;6.80;;;1.00;;
22883;SDS011;13386;24.786;110.488;2022-08-21T04:38:36;6.70;;;1.10;;
22883;SDS011;13386;24.786;110.488;2022-08-21T04:41:09;10.18;;;2.08;;
22883;SDS011;13386;24.786;110.488;2022-08-21T04:43:40;5.75;;;1.17;;
22883;SDS011;13386;24.786;110.488;2022-08-21T04:46:15;8.25;;;1.15;;
22883;SDS011;13386;24.786;110.488;2022-08-21T04:48:48;4.07;;;1.00;;
22883;SDS011;13386;24.786;110.488;2022-08-21T04:51:22;5.72;;;1.00;;
22883;SDS011;13386;24.786;110.488;2022-08-21T04:53:54;5.00;;;1.05;;
22883;SDS011;13386;24.786;110.488;2022-08-21T04:56:29;3.50;;;0.90;;
22883;SDS011;13386;24.786;110.488;2022-08-21T04:59:02;2.78;;;0.77;;
22883;SDS011;13386;24.786;110.488;2022-08-21T05:01:37;5.88;;;1.10;;
22883;SDS011;13386;24.786;110.488;2022-08-21T05:04:10;4.25;;;1.27;;
22883;SDS011;13386;24.786;110.488;2022-08-21T05:06:45;2.92;;;0.65;;
22883;SDS011;13386;24.786;110.488;2022-08-21T05:09:17;2.90;;;0.60;;
22883;SDS011;13386;24.786;110.488;2022-08-21T05:11:50;2.88;;;0.68;;
22883;SDS011;13386;24.786;110.488;2022-08-21T05:14:24;2.65;;;0.80;;
22883;SDS011;13386;24.786;110.488;2022-08-21T05:16:55;1.95;;;0.60;;
22883;SDS011;13386;24.786;110.488;2022-08-21T05:19:26;4.28;;;0.70;;
22883;SDS011;13386;24.786;110.488;2022-08-21T05:21:58;8.10;;;1.20;;
22883;SDS011;13386;24.786;110.488;2022-08-21T05:24:29;4.00;;;0.80;;
22883;SDS011;13386;24.786;110.488;2022-08-21T05:27:04;2.65;;;1.08;;
22883;SDS011;13386;24.786;110.488;2022-08-21T05:29:35;6.80;;;1.10;;
22883;SDS011;13386;24.786;110.488;2022-08-21T05:32:08;2.50;;;0.90;;
22883;SDS011;13386;24.786;110.488;2022-08-21T05:34:39;4.80;;;0.77;;
22883;SDS011;13386;24.786;110.488;2022-08-21T05:37:13;3.70;;;1.10;;
22883;SDS011;13386;24.786;110.488;2022-08-21T05:39:44;3.08;;;0.73;;
22883;SDS011;13386;24.786;110.488;2022-08-21T05:42:17;3.00;;;0.80;;
22883;SDS011;13386;24.786;110.488;2022-08-21T05:44:49;2.60;;;0.60;;
22883;SDS011;13386;24.786;110.488;2022-08-21T05:47:20;3.50;;;0.70;;
22883;SDS011;13386;24.786;110.488;2022-08-21T05:49:51;3.35;;;0.57;;
22883;SDS011;13386;24.786;110.488;2022-08-21T05:52:22;3.00;;;0.40;;
22883;SDS011;13386;24.786;110.488;2022-08-21T05:54:56;1.55;;;0.50;;
22883;SDS011;13386;24.786;110.488;2022-08-21T05:57:28;3.47;;;0.70;;
22883;SDS011;13386;24.786;110.488;2022-08-21T06:00:03;4.57;;;0.60;;
22883;SDS011;13386;24.786;110.488;2022-08-21T06:02:39;2.45;;;0.60;;
22883;SDS011;13386;24.786;110.488;2022-08-21T06:05:13;2.42;;;0.45;;
22883;SDS011;13386;24.786;110.488;2022-08-21T06:46:07;1.20;;;0.60;;
22883;SDS011;13386;24.786;110.488;2022-08-21T06:48:50;3.70;;;0.70;;
22883;SDS011;13386;24.786;110.488;2022-08-21T06:51:57;1.85;;;0.75;;
22883;SDS011;13386;24.786;110.488;2022-08-21T06:54:40;1.52;;;0.60;;
22883;SDS011;13386;24.786;110.488;2022-08-21T06:57:59;1.65;;;0.68;;
22883;SDS011;13386;24.786;110.488;2022-08-21T07:00:58;1.25;;;0.55;;
22883;SDS011;13386;24.786;110.488;2022-08-21T07:10:07;2.58;;;0.73;;
22883;SDS011;13386;24.786;110.488;2022-08-21T07:13:12;1.27;;;0.65;;
22883;SDS011;13386;24.786;110.488;2022-08-21T07:16:12;5.97;;;0.90;;
22883;SDS011;13386;24.786;110.488;2022-08-21T07:19:04;2.92;;;0.70;;
22883;SDS011;13386;24.786;110.488;2022-08-21T07:21:45;1.77;;;0.70;;
22883;SDS011;13386;24.786;110.488;2022-08-21T07:24:16;2.60;;;0.80;;
22883;SDS011;13386;24.786;110.488;2022-08-21T07:26:53;3.30;;;0.80;;
22883;SDS011;13386;24.786;110.488;2022-08-21T07:29:25;3.72;;;0.70;;
22883;SDS011;13386;24.786;110.488;2022-08-21T07:31:56;1.08;;;0.50;;
22883;SDS011;13386;24.786;110.488;2022-08-21T07:34:33;2.23;;;0.60;;
22883;SDS011;13386;24.786;110.488;2022-08-21T07:37:03;1.95;;;0.65;;
22883;SDS011;13386;24.786;110.488;2022-08-21T07:39:37;2.78;;;0.63;;
22883;SDS011;13386;24.786;110.488;2022-08-21T07:42:12;3.75;;;0.77;;
22883;SDS011;13386;24.786;110.488;2022-08-21T07:44:43;1.40;;;0.63;;
22883;SDS011;13386;24.786;110.488;2022-08-21T07:47:14;1.73;;;0.60;;
22883;SDS011;13386;24.786;110.488;2022-08-21T07:49:46;1.92;;;0.70;;
22883;SDS011;13386;24.786;110.488;2022-08-21T07:52:18;2.60;;;0.68;;
22883;SDS011;13386;24.786;110.488;2022-08-21T07:54:52;2.45;;;0.50;;
22883;SDS011;13386;24.786;110.488;2022-08-21T07:57:26;2.80;;;0.63;;
22883;SDS011;13386;24.786;110.488;2022-08-21T07:59:58;2.97;;;0.75;;
22883;SDS011;13386;24.786;110.488;2022-08-21T08:02:39;1.98;;;0.60;;
22883;SDS011;13386;24.786;110.488;2022-08-21T08:05:12;3.03;;;0.70;;
22883;SDS011;13386;24.786;110.488;2022-08-21T08:07:47;2.95;;;0.85;;
22883;SDS011;13386;24.786;110.488;2022-08-21T08:10:28;6.95;;;0.80;;
22883;SDS011;13386;24.786;110.488;2022-08-21T08:13:02;4.72;;;0.80;;
22883;SDS011;13386;24.786;110.488;2022-08-21T08:15:35;4.88;;;0.70;;
22883;SDS011;13386;24.786;110.488;2022-08-21T08:18:09;4.53;;;0.90;;
22883;SDS011;13386;24.786;110.488;2022-08-21T08:20:40;7.47;;;0.82;;
22883;SDS011;13386;24.786;110.488;2022-08-21T08:23:15;2.70;;;0.70;;
22883;SDS011;13386;24.786;110.488;2022-08-21T08:25:47;3.80;;;0.70;;
22883;SDS011;13386;24.786;110.488;2022-08-21T08:28:23;4.20;;;0.87;;
22883;SDS011;13386;24.786;110.488;2022-08-21T08:30:58;4.35;;;0.63;;
22883;SDS011;13386;24.786;110.488;2022-08-21T08:33:29;3.50;;;0.60;;
22883;SDS011;13386;24.786;110.488;2022-08-21T08:36:11;2.60;;;0.60;;
22883;SDS011;13386;24.786;110.488;2022-08-21T08:38:43;3.70;;;0.82;;
22883;SDS011;13386;24.786;110.488;2022-08-21T08:41:16;3.05;;;0.63;;
22883;SDS011;13386;24.786;110.488;2022-08-21T08:43:52;2.58;;;0.70;;
22883;SDS011;13386;24.786;110.488;2022-08-21T08:46:26;3.80;;;0.68;;
22883;SDS011;13386;24.786;110.488;2022-08-21T08:48:59;3.65;;;0.70;;
22883;SDS011;13386;24.786;110.488;2022-08-21T08:51:34;2.38;;;0.52;;
22883;SDS011;13386;24.786;110.488;2022-08-21T08:54:08;4.40;;;0.90;;
22883;SDS011;13386;24.786;110.488;2022-08-21T08:56:41;3.22;;;0.95;;
22883;SDS011;13386;24.786;110.488;2022-08-21T08:59:15;3.67;;;0.80;;
22883;SDS011;13386;24.786;110.488;2022-08-21T09:01:48;5.05;;;1.08;;
22883;SDS011;13386;24.786;110.488;2022-08-21T09:04:21;3.72;;;0.90;;
22883;SDS011;13386;24.786;110.488;2022-08-21T09:06:58;4.63;;;1.05;;
22883;SDS011;13386;24.786;110.488;2022-08-21T09:09:34;3.58;;;1.05;;
22883;SDS011;13386;24.786;110.488;2022-08-21T09:12:18;2.08;;;0.80;;
22883;SDS011;13386;24.786;110.488;2022-08-21T09:15:01;5.88;;;0.98;;
22883;SDS011;13386;24.786;110.488;2022-08-21T09:17:39;4.07;;;0.85;;
22883;SDS011;13386;24.786;110.488;2022-08-21T09:20:14;2.40;;;0.80;;
22883;SDS011;13386;24.786;110.488;2022-08-21T09:22:53;5.70;;;1.13;;
22883;SDS011;13386;24.786;110.488;2022-08-21T09:25:28;4.93;;;1.05;;
22883;SDS011;13386;24.786;110.488;2022-08-21T09:30:34;7.45;;;0.88;;
22883;SDS011;13386;24.786;110.488;2022-08-21T09:33:04;6.63;;;1.02;;
22883;SDS011;13386;24.786;110.488;2022-08-21T09:35:35;3.35;;;0.90;;
22883;SDS011;13386;24.786;110.488;2022-08-21T09:38:06;2.85;;;0.70;;
22883;SDS011;13386;24.786;110.488;2022-08-21T09:40:38;3.05;;;0.90;;
22883;SDS011;13386;24.786;110.488;2022-08-21T09:43:14;4.38;;;0.85;;
22883;SDS011;13386;24.786;110.488;2022-08-21T09:46:00;4.53;;;0.80;;
22883;SDS011;13386;24.786;110.488;2022-08-21T09:48:39;5.20;;;0.88;;
22883;SDS011;13386;24.786;110.488;2022-08-21T09:51:13;7.28;;;1.27;;
22883;SDS011;13386;24.786;110.488;2022-08-21T09:53:45;3.90;;;1.23;;
22883;SDS011;13386;24.786;110.488;2022-08-21T09:56:18;6.25;;;1.40;;
22883;SDS011;13386;24.786;110.488;2022-08-21T09:59:16;4.63;;;1.30;;
22883;SDS011;13386;24.786;110.488;2022-08-21T10:01:49;6.13;;;1.27;;
22883;SDS011;13386;24.786;110.488;2022-08-21T10:04:22;4.18;;;1.30;;
22883;SDS011;13386;24.786;110.488;2022-08-21T10:06:53;4.85;;;1.30;;
22883;SDS011;13386;24.786;110.488;2022-08-21T10:09:24;5.70;;;1.50;;
22883;SDS011;13386;24.786;110.488;2022-08-21T10:11:56;7.55;;;1.67;;
22883;SDS011;13386;24.786;110.488;2022-08-21T10:14:36;18.97;;;3.63;;
22883;SDS011;13386;24.786;110.488;2022-08-21T10:17:15;5.93;;;1.40;;
22883;SDS011;13386;24.786;110.488;2022-08-21T10:19:49;5.72;;;1.77;;
22883;SDS011;13386;24.786;110.488;2022-08-21T10:22:27;8.38;;;1.80;;
22883;SDS011;13386;24.786;110.488;2022-08-21T10:25:08;8.35;;;2.33;;
22883;SDS011;13386;24.786;110.488;2022-08-21T10:27:42;8.15;;;2.00;;
22883;SDS011;13386;24.786;110.488;2022-08-21T10:32:52;24.23;;;4.15;;
22883;SDS011;13386;24.786;110.488;2022-08-21T10:35:29;10.48;;;1.90;;
22883;SDS011;13386;24.786;110.488;2022-08-21T10:38:07;8.23;;;2.10;;
22883;SDS011;13386;24.786;110.488;2022-08-21T10:40:42;8.27;;;2.33;;
22883;SDS011;13386;24.786;110.488;2022-08-21T10:43:20;11.30;;;2.35;;
22883;SDS011;13386;24.786;110.488;2022-08-21T10:45:55;9.30;;;2.70;;
22883;SDS011;13386;24.786;110.488;2022-08-21T10:48:32;12.27;;;2.92;;
22883;SDS011;13386;24.786;110.488;2022-08-21T10:51:06;9.43;;;2.70;;
22883;SDS011;13386;24.786;110.488;2022-08-21T10:53:52;8.85;;;2.10;;
22883;SDS011;13386;24.786;110.488;2022-08-21T10:56:24;13.10;;;2.38;;
22883;SDS011;13386;24.786;110.488;2022-08-21T10:59:07;5.18;;;1.77;;
22883;SDS011;13386;24.786;110.488;2022-08-21T11:01:42;4.97;;;1.60;;
22883;SDS011;13386;24.786;110.488;2022-08-21T11:04:19;11.13;;;1.73;;
22883;SDS011;13386;24.786;110.488;2022-08-21T11:06:52;4.53;;;1.77;;
22883;SDS011;13386;24.786;110.488;2022-08-21T11:09:23;6.72;;;1.80;;
22883;SDS011;13386;24.786;110.488;2022-08-21T11:11:57;6.75;;;1.63;;
22883;SDS011;13386;24.786;110.488;2022-08-21T11:14:34;9.43;;;1.70;;
22883;SDS011;13386;24.786;110.488;2022-08-21T11:17:08;7.18;;;1.63;;
22883;SDS011;13386;24.786;110.488;2022-08-21T11:19:58;5.45;;;1.77;;
22883;SDS011;13386;24.786;110.488;2022-08-21T11:22:49;7.30;;;2.03;;
22883;SDS011;13386;24.786;110.488;2022-08-21T11:25:41;6.57;;;2.25;;
22883;SDS011;13386;24.786;110.488;2022-08-21T11:28:58;6.85;;;2.30;;
22883;SDS011;13386;24.786;110.488;2022-08-21T11:31:58;6.13;;;2.10;;
22883;SDS011;13386;24.786;110.488;2022-08-21T12:00:28;6.38;;;1.67;;
22883;SDS011;13386;24.786;110.488;2022-08-21T12:07:40;4.20;;;1.40;;
22883;SDS011;13386;24.786;110.488;2022-08-21T12:44:20;7.90;;;1.80;;
22883;SDS011;13386;24.786;110.488;2022-08-21T12:47:16;3.83;;;1.42;;
22883;SDS011;13386;24.786;110.488;2022-08-21T12:50:11;4.70;;;1.60;;
22883;SDS011;13386;24.786;110.488;2022-08-21T12:55:51;4.35;;;1.50;;
22883;SDS011;13386;24.786;110.488;2022-08-21T12:58:48;4.82;;;1.42;;
22883;SDS011;13386;24.786;110.488;2022-08-21T13:05:18;5.53;;;2.00;;
22883;SDS011;13386;24.786;110.488;2022-08-21T13:11:24;5.95;;;1.80;;
22883;SDS011;13386;24.786;110.488;2022-08-21T13:14:10;7.93;;;1.90;;
22883;SDS011;13386;24.786;110.488;2022-08-21T13:27:33;5.88;;;2.00;;
22883;SDS011;13386;24.786;110.488;2022-08-21T13:33:29;7.60;;;3.30;;
22883;SDS011;13386;24.786;110.488;2022-08-21T13:36:11;7.63;;;2.90;;
22883;SDS011;13386;24.786;110.488;2022-08-21T13:39:07;9.43;;;3.25;;
22883;SDS011;13386;24.786;110.488;2022-08-21T13:42:08;7.05;;;2.40;;
22883;SDS011;13386;24.786;110.488;2022-08-21T13:48:16;5.43;;;2.35;;
22883;SDS011;13386;24.786;110.488;2022-08-21T13:50:58;6.40;;;2.38;;
22883;SDS011;13386;24.786;110.488;2022-08-21T13:53:36;7.95;;;2.83;;
22883;SDS011;13386;24.786;110.488;2022-08-21T13:56:41;6.63;;;2.40;;
22883;SDS011;13386;24.786;110.488;2022-08-21T13:59:41;9.32;;;2.60;;
22883;SDS011;13386;24.786;110.488;2022-08-21T14:03:04;8.20;;;2.60;;
22883;SDS011;13386;24.786;110.488;2022-08-21T14:06:01;9.38;;;2.90;;
22883;SDS011;13386;24.786;110.488;2022-08-21T14:08:39;6.25;;;2.40;;
22883;SDS011;13386;24.786;110.488;2022-08-21T14:11:18;8.77;;;2.40;;
22883;SDS011;13386;24.786;110.488;2022-08-21T14:14:14;7.88;;;2.53;;
22883;SDS011;13386;24.786;110.488;2022-08-21T14:17:02;6.95;;;2.17;;
22883;SDS011;13386;24.786;110.488;2022-08-21T14:29:56;8.82;;;2.42;;
22883;SDS011;13386;24.786;110.488;2022-08-21T14:32:44;7.63;;;2.67;;
22883;SDS011;13386;24.786;110.488;2022-08-21T14:35:30;8.38;;;2.75;;
22883;SDS011;13386;24.786;110.488;2022-08-21T14:38:19;7.73;;;2.33;;
22883;SDS011;13386;24.786;110.488;2022-08-21T14:41:10;15.35;;;2.20;;
22883;SDS011;13386;24.786;110.488;2022-08-21T14:44:41;10.38;;;2.58;;
22883;SDS011;13386;24.786;110.488;2022-08-21T14:57:39;5.82;;;1.80;;
22883;SDS011;13386;24.786;110.488;2022-08-21T15:00:34;6.07;;;1.90;;
22883;SDS011;13386;24.786;110.488;2022-08-21T15:03:26;6.22;;;1.83;;
22883;SDS011;13386;24.786;110.488;2022-08-21T15:06:23;8.70;;;2.05;;
22883;SDS011;13386;24.786;110.488;2022-08-21T15:09:36;5.38;;;1.60;;
22883;SDS011;13386;24.786;110.488;2022-08-21T15:13:06;7.22;;;2.10;;
22883;SDS011;13386;24.786;110.488;2022-08-21T15:15:54;4.82;;;1.98;;
22883;SDS011;13386;24.786;110.488;2022-08-21T15:18:55;4.40;;;1.80;;
22883;SDS011;13386;24.786;110.488;2022-08-21T15:21:57;7.63;;;1.67;;
22883;SDS011;13386;24.786;110.488;2022-08-21T15:25:30;9.52;;;1.88;;
22883;SDS011;13386;24.786;110.488;2022-08-21T15:37:50;5.20;;;2.25;;
22883;SDS011;13386;24.786;110.488;2022-08-21T15:40:40;7.95;;;2.15;;
22883;SDS011;13386;24.786;110.488;2022-08-21T15:43:41;6.47;;;2.10;;
22883;SDS011;13386;24.786;110.488;2022-08-21T15:46:41;6.93;;;2.20;;
22883;SDS011;13386;24.786;110.488;2022-08-21T15:49:50;6.32;;;2.10;;
22883;SDS011;13386;24.786;110.488;2022-08-21T15:52:44;8.85;;;2.40;;
22883;SDS011;13386;24.786;110.488;2022-08-21T16:02:05;6.32;;;2.38;;
22883;SDS011;13386;24.786;110.488;2022-08-21T16:08:03;4.75;;;1.88;;
22883;SDS011;13386;24.786;110.488;2022-08-21T16:10:46;5.72;;;2.03;;
22883;SDS011;13386;24.786;110.488;2022-08-21T16:13:36;5.18;;;2.20;;
22883;SDS011;13386;24.786;110.488;2022-08-21T16:16:33;5.88;;;1.70;;
22883;SDS011;13386;24.786;110.488;2022-08-21T16:19:35;6.70;;;1.88;;
22883;SDS011;13386;24.786;110.488;2022-08-21T16:25:05;5.45;;;2.22;;
22883;SDS011;13386;24.786;110.488;2022-08-21T16:27:49;5.85;;;2.20;;
22883;SDS011;13386;24.786;110.488;2022-08-21T16:30:36;5.25;;;2.03;;
22883;SDS011;13386;24.786;110.488;2022-08-21T16:33:42;6.70;;;2.40;;
22883;SDS011;13386;24.786;110.488;2022-08-21T16:36:52;6.97;;;2.20;;
22883;SDS011;13386;24.786;110.488;2022-08-21T16:39:49;8.20;;;2.42;;
22883;SDS011;13386;24.786;110.488;2022-08-21T16:42:33;7.85;;;2.25;;
22883;SDS011;13386;24.786;110.488;2022-08-21T16:45:33;4.35;;;1.92;;
22883;SDS011;13386;24.786;110.488;2022-08-21T16:48:26;10.48;;;2.10;;
22883;SDS011;13386;24.786;110.488;2022-08-21T16:51:26;6.78;;;2.00;;
22883;SDS011;13386;24.786;110.488;2022-08-21T16:57:48;5.47;;;2.20;;
22883;SDS011;13386;24.786;110.488;2022-08-21T17:00:52;8.85;;;2.13;;
22883;SDS011;13386;24.786;110.488;2022-08-21T17:03:45;8.30;;;2.20;;
22883;SDS011;13386;24.786;110.488;2022-08-21T17:06:52;7.88;;;2.20;;
22883;SDS011;13386;24.786;110.488;2022-08-21T17:13:49;9.88;;;2.30;;
22883;SDS011;13386;24.786;110.488;2022-08-21T17:16:39;5.57;;;1.83;;
22883;SDS011;13386;24.786;110.488;2022-08-21T17:19:27;7.03;;;2.42;;
22883;SDS011;13386;24.786;110.488;2022-08-21T17:22:06;7.30;;;2.17;;
22883;SDS011;13386;24.786;110.488;2022-08-21T17:25:06;10.80;;;2.13;;
22883;SDS011;13386;24.786;110.488;2022-08-21T17:27:47;4.72;;;2.05;;
22883;SDS011;13386;24.786;110.488;2022-08-21T17:37:33;6.13;;;1.70;;
22883;SDS011;13386;24.786;110.488;2022-08-21T17:40:21;3.92;;;1.83;;
22883;SDS011;13386;24.786;110.488;2022-08-21T17:43:11;4.03;;;1.73;;
22883;SDS011;13386;24.786;110.488;2022-08-21T17:46:13;4.10;;;1.80;;
22883;SDS011;13386;24.786;110.488;2022-08-21T17:49:07;4.80;;;1.80;;
22883;SDS011;13386;24.786;110.488;2022-08-21T17:52:01;5.38;;;1.80;;
22883;SDS011;13386;24.786;110.488;2022-08-21T18:01:09;8.50;;;2.08;;
22883;SDS011;13386;24.786;110.488;2022-08-21T18:04:00;5.97;;;1.85;;
22883;SDS011;13386;24.786;110.488;2022-08-21T18:09:59;4.20;;;1.75;;
22883;SDS011;13386;24.786;110.488;2022-08-21T18:12:42;6.82;;;2.25;;
22883;SDS011;13386;24.786;110.488;2022-08-21T18:19:35;4.43;;;1.80;;
22883;SDS011;13386;24.786;110.488;2022-08-21T18:22:13;4.32;;;1.88;;
22883;SDS011;13386;24.786;110.488;2022-08-21T18:25:11;4.28;;;1.98;;
22883;SDS011;13386;24.786;110.488;2022-08-21T18:28:04;7.85;;;1.80;;
22883;SDS011;13386;24.786;110.488;2022-08-21T18:34:05;5.97;;;2.03;;
22883;SDS011;13386;24.786;110.488;2022-08-21T18:37:20;5.00;;;1.70;;
22883;SDS011;13386;24.786;110.488;2022-08-21T18:40:20;7.80;;;2.00;;
22883;SDS011;13386;24.786;110.488;2022-08-21T18:43:27;3.83;;;1.50;;
22883;SDS011;13386;24.786;110.488;2022-08-21T18:46:15;6.32;;;1.60;;
22883;SDS011;13386;24.786;110.488;2022-08-21T18:55:38;8.32;;;1.90;;
22883;SDS011;13386;24.786;110.488;2022-08-21T18:58:25;5.22;;;1.60;;
22883;SDS011;13386;24.786;110.488;2022-08-21T19:01:16;5.90;;;2.10;;
22883;SDS011;13386;24.786;110.488;2022-08-21T19:04:08;4.30;;;1.67;;
22883;SDS011;13386;24.786;110.488;2022-08-21T19:06:58;4.45;;;1.70;;
22883;SDS011;13386;24.786;110.488;2022-08-21T19:10:00;4.93;;;1.60;;
22883;SDS011;13386;24.786;110.488;2022-08-21T19:12:49;7.95;;;1.70;;
22883;SDS011;13386;24.786;110.488;2022-08-21T19:15:35;7.40;;;1.90;;
22883;SDS011;13386;24.786;110.488;2022-08-21T19:18:24;4.60;;;1.50;;
22883;SDS011;13386;24.786;110.488;2022-08-21T19:21:27;5.57;;;1.73;;
22883;SDS011;13386;24.786;110.488;2022-08-21T19:24:14;4.53;;;1.70;;
22883;SDS011;13386;24.786;110.488;2022-08-21T19:27:01;4.75;;;1.48;;
22883;SDS011;13386;24.786;110.488;2022-08-21T19:30:06;4.88;;;1.55;;
22883;SDS011;13386;24.786;110.488;2022-08-21T19:33:04;4.70;;;1.38;;
22883;SDS011;13386;24.786;110.488;2022-08-21T19:35:42;7.07;;;1.50;;